Angoon Seaplane Base

Airport
ICAO code: 
PAGN
IATA Code: 
AGN
Summary
ICAO Region: 
NAM
Territory: 
Location: 
Angoon, Alaska
Serving: 
Angoon
Coordinates: 
Aerial View: 
57° 30' 13" N, 134° 35' 6" W
Metar
Observation
PAGN 050656Z AUTO 04008KT 10SM BKN021 OVC026 M04/M06 A3054 RMK AO2 SLP330 T10391061 FZRANO
Station
Angoon
Date/Time
2021-12-05 06:56:00
Wind direction
40°
Wind speed
08 kts
Lowest cloud amount
broken clouds
Temperature
-3.9°C
Dew point
-6.1°C
Humidity
84%
Weather condition
n/a

Runways

Designator Length Width Surface Rops
NW/SE 3048 274 WATER No/No
Airport map: 
Aerial View: 

SKYbrary Partners:

Safety knowledge contributed by: